sensor_id;sensor_type;location;lat;lon;timestamp;P1;durP1;ratioP1;P2;durP2;ratioP2
59828;SDS011;45708;51.848;107.620;2022-12-18T00:00:44;17.47;;;9.23;;
59828;SDS011;45708;51.848;107.620;2022-12-18T00:05:49;4.40;;;2.97;;
59828;SDS011;45708;51.848;107.620;2022-12-18T00:10:50;33.20;;;9.30;;
59828;SDS011;45708;51.848;107.620;2022-12-18T00:15:51;12.23;;;6.20;;
59828;SDS011;45708;51.848;107.620;2022-12-18T00:20:52;10.73;;;7.47;;
59828;SDS011;45708;51.848;107.620;2022-12-18T00:25:54;9.23;;;1.67;;
59828;SDS011;45708;51.848;107.620;2022-12-18T00:30:59;25.23;;;6.63;;
59828;SDS011;45708;51.848;107.620;2022-12-18T00:36:12;16.13;;;6.77;;
59828;SDS011;45708;51.848;107.620;2022-12-18T00:41:23;12.83;;;8.00;;
59828;SDS011;45708;51.848;107.620;2022-12-18T00:46:24;14.30;;;9.07;;
59828;SDS011;45708;51.848;107.620;2022-12-18T00:51:25;9.63;;;8.53;;
59828;SDS011;45708;51.848;107.620;2022-12-18T00:56:27;14.80;;;9.77;;
59828;SDS011;45708;51.848;107.620;2022-12-18T01:01:28;10.93;;;8.47;;
59828;SDS011;45708;51.848;107.620;2022-12-18T01:06:29;14.37;;;9.03;;
59828;SDS011;45708;51.848;107.620;2022-12-18T01:11:30;9.77;;;6.80;;
59828;SDS011;45708;51.848;107.620;2022-12-18T01:16:31;8.90;;;7.93;;
59828;SDS011;45708;51.848;107.620;2022-12-18T01:21:33;32.27;;;12.20;;
59828;SDS011;45708;51.848;107.620;2022-12-18T01:26:34;22.93;;;13.00;;
59828;SDS011;45708;51.848;107.620;2022-12-18T01:31:35;36.30;;;13.67;;
59828;SDS011;45708;51.848;107.620;2022-12-18T01:36:37;14.97;;;10.60;;
59828;SDS011;45708;51.848;107.620;2022-12-18T01:41:38;19.47;;;12.30;;
59828;SDS011;45708;51.848;107.620;2022-12-18T01:46:41;21.37;;;11.90;;
59828;SDS011;45708;51.848;107.620;2022-12-18T01:51:43;36.60;;;17.17;;
59828;SDS011;45708;51.848;107.620;2022-12-18T01:56:44;36.20;;;17.50;;
59828;SDS011;45708;51.848;107.620;2022-12-18T02:01:45;34.63;;;16.10;;
59828;SDS011;45708;51.848;107.620;2022-12-18T02:06:46;49.30;;;22.30;;
59828;SDS011;45708;51.848;107.620;2022-12-18T02:11:59;66.87;;;27.20;;
59828;SDS011;45708;51.848;107.620;2022-12-18T02:17:17;47.70;;;19.23;;
59828;SDS011;45708;51.848;107.620;2022-12-18T02:27:44;52.80;;;19.10;;
59828;SDS011;45708;51.848;107.620;2022-12-18T02:32:50;22.43;;;12.77;;
59828;SDS011;45708;51.848;107.620;2022-12-18T02:37:52;29.50;;;12.60;;
59828;SDS011;45708;51.848;107.620;2022-12-18T02:42:55;17.73;;;11.33;;
59828;SDS011;45708;51.848;107.620;2022-12-18T02:48:02;17.43;;;11.63;;
59828;SDS011;45708;51.848;107.620;2022-12-18T02:58:16;21.53;;;9.03;;
59828;SDS011;45708;51.848;107.620;2022-12-18T03:03:26;8.40;;;6.10;;
59828;SDS011;45708;51.848;107.620;2022-12-18T03:08:36;21.10;;;9.37;;
59828;SDS011;45708;51.848;107.620;2022-12-18T03:13:54;19.27;;;9.77;;
59828;SDS011;45708;51.848;107.620;2022-12-18T03:19:01;8.00;;;4.17;;
59828;SDS011;45708;51.848;107.620;2022-12-18T03:24:05;6.80;;;5.47;;
59828;SDS011;45708;51.848;107.620;2022-12-18T03:29:12;7.90;;;5.77;;
59828;SDS011;45708;51.848;107.620;2022-12-18T03:34:20;4.20;;;2.93;;
59828;SDS011;45708;51.848;107.620;2022-12-18T03:39:25;10.80;;;2.47;;
59828;SDS011;45708;51.848;107.620;2022-12-18T03:44:31;1.50;;;1.37;;
59828;SDS011;45708;51.848;107.620;2022-12-18T03:49:56;3.80;;;2.30;;
59828;SDS011;45708;51.848;107.620;2022-12-18T03:55:18;2.03;;;1.40;;
59828;SDS011;45708;51.848;107.620;2022-12-18T04:00:21;6.90;;;3.37;;
59828;SDS011;45708;51.848;107.620;2022-12-18T04:05:22;6.30;;;3.90;;
59828;SDS011;45708;51.848;107.620;2022-12-18T04:10:25;2.47;;;2.27;;
59828;SDS011;45708;51.848;107.620;2022-12-18T04:15:26;8.67;;;4.87;;
59828;SDS011;45708;51.848;107.620;2022-12-18T04:20:27;4.63;;;3.50;;
59828;SDS011;45708;51.848;107.620;2022-12-18T04:25:28;11.13;;;4.33;;
59828;SDS011;45708;51.848;107.620;2022-12-18T04:30:29;8.93;;;5.53;;
59828;SDS011;45708;51.848;107.620;2022-12-18T04:35:30;7.73;;;4.57;;
59828;SDS011;45708;51.848;107.620;2022-12-18T04:40:31;2.57;;;2.37;;
59828;SDS011;45708;51.848;107.620;2022-12-18T04:45:32;1.70;;;1.60;;
59828;SDS011;45708;51.848;107.620;2022-12-18T04:50:33;11.03;;;5.20;;
59828;SDS011;45708;51.848;107.620;2022-12-18T04:55:34;5.43;;;1.97;;
59828;SDS011;45708;51.848;107.620;2022-12-18T05:00:35;1.80;;;1.47;;
59828;SDS011;45708;51.848;107.620;2022-12-18T05:05:36;20.03;;;10.17;;
59828;SDS011;45708;51.848;107.620;2022-12-18T05:10:37;12.13;;;5.97;;
59828;SDS011;45708;51.848;107.620;2022-12-18T05:15:38;5.77;;;3.53;;
59828;SDS011;45708;51.848;107.620;2022-12-18T05:20:38;5.33;;;3.13;;
59828;SDS011;45708;51.848;107.620;2022-12-18T05:25:39;10.43;;;4.30;;
59828;SDS011;45708;51.848;107.620;2022-12-18T05:30:40;3.20;;;1.60;;
59828;SDS011;45708;51.848;107.620;2022-12-18T05:35:41;2.57;;;1.40;;
59828;SDS011;45708;51.848;107.620;2022-12-18T05:40:42;8.93;;;3.20;;
59828;SDS011;45708;51.848;107.620;2022-12-18T05:45:43;2.83;;;1.50;;
59828;SDS011;45708;51.848;107.620;2022-12-18T05:50:44;10.40;;;4.57;;
59828;SDS011;45708;51.848;107.620;2022-12-18T05:55:47;8.27;;;4.53;;
59828;SDS011;45708;51.848;107.620;2022-12-18T06:00:48;1.53;;;1.33;;
59828;SDS011;45708;51.848;107.620;2022-12-18T06:05:49;10.50;;;3.73;;
59828;SDS011;45708;51.848;107.620;2022-12-18T06:10:50;11.00;;;4.27;;
59828;SDS011;45708;51.848;107.620;2022-12-18T06:15:52;3.63;;;2.20;;
59828;SDS011;45708;51.848;107.620;2022-12-18T06:20:56;12.13;;;4.20;;
59828;SDS011;45708;51.848;107.620;2022-12-18T06:25:58;14.70;;;6.57;;
59828;SDS011;45708;51.848;107.620;2022-12-18T06:31:03;3.53;;;3.10;;
59828;SDS011;45708;51.848;107.620;2022-12-18T06:36:05;6.13;;;3.23;;
59828;SDS011;45708;51.848;107.620;2022-12-18T06:41:07;7.20;;;3.50;;
59828;SDS011;45708;51.848;107.620;2022-12-18T06:46:09;13.53;;;4.43;;
59828;SDS011;45708;51.848;107.620;2022-12-18T06:51:11;12.67;;;5.33;;
59828;SDS011;45708;51.848;107.620;2022-12-18T06:56:12;13.03;;;6.67;;
59828;SDS011;45708;51.848;107.620;2022-12-18T07:01:13;15.70;;;5.83;;
59828;SDS011;45708;51.848;107.620;2022-12-18T07:06:15;5.63;;;5.13;;
59828;SDS011;45708;51.848;107.620;2022-12-18T07:11:17;8.63;;;3.17;;
59828;SDS011;45708;51.848;107.620;2022-12-18T07:16:19;7.30;;;4.17;;
59828;SDS011;45708;51.848;107.620;2022-12-18T07:21:21;5.60;;;2.57;;
59828;SDS011;45708;51.848;107.620;2022-12-18T07:26:23;10.13;;;7.10;;
59828;SDS011;45708;51.848;107.620;2022-12-18T07:31:24;7.77;;;4.57;;
59828;SDS011;45708;51.848;107.620;2022-12-18T07:36:26;5.07;;;3.80;;
59828;SDS011;45708;51.848;107.620;2022-12-18T07:41:28;8.37;;;5.03;;
59828;SDS011;45708;51.848;107.620;2022-12-18T07:46:29;9.83;;;6.50;;
59828;SDS011;45708;51.848;107.620;2022-12-18T07:51:29;14.43;;;5.93;;
59828;SDS011;45708;51.848;107.620;2022-12-18T07:56:32;19.23;;;8.57;;
59828;SDS011;45708;51.848;107.620;2022-12-18T08:01:34;25.30;;;9.97;;
59828;SDS011;45708;51.848;107.620;2022-12-18T08:06:35;25.00;;;11.30;;
59828;SDS011;45708;51.848;107.620;2022-12-18T08:11:36;41.93;;;18.80;;
59828;SDS011;45708;51.848;107.620;2022-12-18T08:16:37;15.07;;;9.07;;
59828;SDS011;45708;51.848;107.620;2022-12-18T08:21:39;33.93;;;14.07;;
59828;SDS011;45708;51.848;107.620;2022-12-18T08:26:40;37.00;;;18.20;;
59828;SDS011;45708;51.848;107.620;2022-12-18T08:31:41;55.90;;;29.60;;
59828;SDS011;45708;51.848;107.620;2022-12-18T08:36:41;73.63;;;33.50;;
59828;SDS011;45708;51.848;107.620;2022-12-18T08:41:42;43.73;;;20.87;;
59828;SDS011;45708;51.848;107.620;2022-12-18T08:46:44;52.13;;;23.27;;
59828;SDS011;45708;51.848;107.620;2022-12-18T08:51:45;50.10;;;23.67;;
59828;SDS011;45708;51.848;107.620;2022-12-18T08:56:46;56.37;;;26.77;;
59828;SDS011;45708;51.848;107.620;2022-12-18T09:01:47;66.47;;;34.63;;
59828;SDS011;45708;51.848;107.620;2022-12-18T09:06:48;53.13;;;28.00;;
59828;SDS011;45708;51.848;107.620;2022-12-18T09:11:49;48.07;;;25.30;;
59828;SDS011;45708;51.848;107.620;2022-12-18T09:16:52;57.07;;;24.77;;
59828;SDS011;45708;51.848;107.620;2022-12-18T09:21:52;54.30;;;28.93;;
59828;SDS011;45708;51.848;107.620;2022-12-18T09:26:53;57.83;;;29.43;;
59828;SDS011;45708;51.848;107.620;2022-12-18T09:31:54;58.77;;;27.93;;
59828;SDS011;45708;51.848;107.620;2022-12-18T09:36:55;60.60;;;25.93;;
59828;SDS011;45708;51.848;107.620;2022-12-18T09:41:57;63.83;;;28.17;;
59828;SDS011;45708;51.848;107.620;2022-12-18T09:47:06;46.13;;;22.50;;
59828;SDS011;45708;51.848;107.620;2022-12-18T09:52:14;46.97;;;23.73;;
59828;SDS011;45708;51.848;107.620;2022-12-18T09:57:20;55.90;;;23.50;;
59828;SDS011;45708;51.848;107.620;2022-12-18T10:02:24;60.27;;;27.27;;
59828;SDS011;45708;51.848;107.620;2022-12-18T10:28:42;73.13;;;38.53;;
59828;SDS011;45708;51.848;107.620;2022-12-18T10:33:44;98.43;;;44.07;;
59828;SDS011;45708;51.848;107.620;2022-12-18T10:38:45;89.87;;;41.50;;
59828;SDS011;45708;51.848;107.620;2022-12-18T10:43:46;100.43;;;48.20;;
59828;SDS011;45708;51.848;107.620;2022-12-18T10:53:51;127.10;;;56.23;;
59828;SDS011;45708;51.848;107.620;2022-12-18T10:58:56;97.17;;;45.73;;
59828;SDS011;45708;51.848;107.620;2022-12-18T11:04:00;80.43;;;41.00;;
59828;SDS011;45708;51.848;107.620;2022-12-18T11:09:20;78.60;;;43.58;;
59828;SDS011;45708;51.848;107.620;2022-12-18T11:14:30;109.20;;;52.97;;
59828;SDS011;45708;51.848;107.620;2022-12-18T11:19:34;145.30;;;61.47;;
59828;SDS011;45708;51.848;107.620;2022-12-18T11:24:36;111.90;;;59.80;;
59828;SDS011;45708;51.848;107.620;2022-12-18T11:29:38;105.63;;;50.40;;
59828;SDS011;45708;51.848;107.620;2022-12-18T11:34:41;78.10;;;41.80;;
59828;SDS011;45708;51.848;107.620;2022-12-18T11:39:49;93.50;;;40.13;;
59828;SDS011;45708;51.848;107.620;2022-12-18T11:50:11;70.47;;;33.67;;
59828;SDS011;45708;51.848;107.620;2022-12-18T11:55:20;78.57;;;36.13;;
59828;SDS011;45708;51.848;107.620;2022-12-18T12:00:32;74.47;;;36.67;;
59828;SDS011;45708;51.848;107.620;2022-12-18T12:16:51;85.00;;;40.90;;
59828;SDS011;45708;51.848;107.620;2022-12-18T12:21:53;78.97;;;38.27;;
59828;SDS011;45708;51.848;107.620;2022-12-18T12:43:19;63.83;;;33.57;;
59828;SDS011;45708;51.848;107.620;2022-12-18T12:53:49;62.37;;;36.20;;
59828;SDS011;45708;51.848;107.620;2022-12-18T13:09:17;78.87;;;42.90;;
59828;SDS011;45708;51.848;107.620;2022-12-18T13:14:22;71.00;;;34.00;;
59828;SDS011;45708;51.848;107.620;2022-12-18T13:19:28;103.23;;;53.47;;
59828;SDS011;45708;51.848;107.620;2022-12-18T13:24:36;84.63;;;39.93;;
59828;SDS011;45708;51.848;107.620;2022-12-18T13:29:42;60.17;;;33.03;;
59828;SDS011;45708;51.848;107.620;2022-12-18T13:34:44;63.80;;;37.20;;
59828;SDS011;45708;51.848;107.620;2022-12-18T13:39:45;76.40;;;38.17;;
59828;SDS011;45708;51.848;107.620;2022-12-18T13:44:46;61.93;;;38.03;;
59828;SDS011;45708;51.848;107.620;2022-12-18T13:49:47;77.93;;;39.00;;
59828;SDS011;45708;51.848;107.620;2022-12-18T13:54:53;81.67;;;41.67;;
59828;SDS011;45708;51.848;107.620;2022-12-18T13:59:56;47.65;;;28.02;;
59828;SDS011;45708;51.848;107.620;2022-12-18T14:04:58;52.40;;;26.43;;
59828;SDS011;45708;51.848;107.620;2022-12-18T14:09:58;42.27;;;20.30;;
59828;SDS011;45708;51.848;107.620;2022-12-18T14:15:02;30.70;;;19.17;;
59828;SDS011;45708;51.848;107.620;2022-12-18T14:20:12;40.00;;;26.50;;
59828;SDS011;45708;51.848;107.620;2022-12-18T14:25:21;46.80;;;24.77;;
59828;SDS011;45708;51.848;107.620;2022-12-18T14:30:25;53.27;;;25.53;;
59828;SDS011;45708;51.848;107.620;2022-12-18T14:41:00;43.72;;;27.30;;
59828;SDS011;45708;51.848;107.620;2022-12-18T14:46:03;31.40;;;21.30;;
59828;SDS011;45708;51.848;107.620;2022-12-18T14:56:20;83.40;;;35.60;;
59828;SDS011;45708;51.848;107.620;2022-12-18T15:01:25;35.47;;;27.20;;
59828;SDS011;45708;51.848;107.620;2022-12-18T15:06:30;38.33;;;23.93;;
59828;SDS011;45708;51.848;107.620;2022-12-18T15:11:44;24.00;;;16.63;;
59828;SDS011;45708;51.848;107.620;2022-12-18T15:16:49;29.53;;;20.23;;
59828;SDS011;45708;51.848;107.620;2022-12-18T15:21:54;17.85;;;14.65;;
59828;SDS011;45708;51.848;107.620;2022-12-18T15:26:55;37.10;;;22.07;;
59828;SDS011;45708;51.848;107.620;2022-12-18T15:32:05;32.90;;;18.13;;
59828;SDS011;45708;51.848;107.620;2022-12-18T15:37:22;21.93;;;13.40;;
59828;SDS011;45708;51.848;107.620;2022-12-18T15:42:22;49.77;;;22.87;;
59828;SDS011;45708;51.848;107.620;2022-12-18T15:47:23;46.93;;;22.10;;
59828;SDS011;45708;51.848;107.620;2022-12-18T15:52:24;33.00;;;18.20;;
59828;SDS011;45708;51.848;107.620;2022-12-18T15:57:25;15.53;;;10.60;;
59828;SDS011;45708;51.848;107.620;2022-12-18T16:02:26;40.03;;;21.07;;
59828;SDS011;45708;51.848;107.620;2022-12-18T16:07:27;22.83;;;14.23;;
59828;SDS011;45708;51.848;107.620;2022-12-18T16:12:29;14.17;;;12.73;;
59828;SDS011;45708;51.848;107.620;2022-12-18T16:17:29;32.33;;;17.43;;
59828;SDS011;45708;51.848;107.620;2022-12-18T16:22:33;41.87;;;18.30;;
59828;SDS011;45708;51.848;107.620;2022-12-18T16:27:34;23.03;;;20.77;;
59828;SDS011;45708;51.848;107.620;2022-12-18T16:32:35;37.17;;;17.80;;
59828;SDS011;45708;51.848;107.620;2022-12-18T16:37:36;77.27;;;36.17;;
59828;SDS011;45708;51.848;107.620;2022-12-18T16:42:38;10.37;;;9.47;;
59828;SDS011;45708;51.848;107.620;2022-12-18T16:47:40;25.03;;;11.67;;
59828;SDS011;45708;51.848;107.620;2022-12-18T16:52:41;14.87;;;8.50;;
59828;SDS011;45708;51.848;107.620;2022-12-18T16:57:42;10.33;;;9.13;;
59828;SDS011;45708;51.848;107.620;2022-12-18T17:02:43;2.87;;;1.87;;
59828;SDS011;45708;51.848;107.620;2022-12-18T17:07:43;5.03;;;4.73;;
59828;SDS011;45708;51.848;107.620;2022-12-18T17:12:44;27.73;;;17.53;;
59828;SDS011;45708;51.848;107.620;2022-12-18T17:17:45;22.70;;;17.30;;
59828;SDS011;45708;51.848;107.620;2022-12-18T17:22:46;15.37;;;9.37;;
59828;SDS011;45708;51.848;107.620;2022-12-18T17:27:49;18.97;;;11.87;;
59828;SDS011;45708;51.848;107.620;2022-12-18T17:32:50;22.87;;;12.90;;
59828;SDS011;45708;51.848;107.620;2022-12-18T17:37:51;7.23;;;6.13;;
59828;SDS011;45708;51.848;107.620;2022-12-18T17:42:52;12.87;;;10.73;;
59828;SDS011;45708;51.848;107.620;2022-12-18T17:47:53;27.97;;;13.47;;
59828;SDS011;45708;51.848;107.620;2022-12-18T17:52:56;14.97;;;11.17;;
59828;SDS011;45708;51.848;107.620;2022-12-18T17:57:57;15.20;;;9.67;;
59828;SDS011;45708;51.848;107.620;2022-12-18T18:02:58;4.57;;;4.00;;
59828;SDS011;45708;51.848;107.620;2022-12-18T18:07:59;18.00;;;11.13;;
59828;SDS011;45708;51.848;107.620;2022-12-18T18:13:01;16.40;;;12.40;;
59828;SDS011;45708;51.848;107.620;2022-12-18T18:18:02;16.70;;;9.43;;
59828;SDS011;45708;51.848;107.620;2022-12-18T18:23:03;8.10;;;5.53;;
59828;SDS011;45708;51.848;107.620;2022-12-18T18:28:05;16.57;;;9.20;;
59828;SDS011;45708;51.848;107.620;2022-12-18T18:33:06;6.40;;;6.03;;
59828;SDS011;45708;51.848;107.620;2022-12-18T18:38:07;5.83;;;4.87;;
59828;SDS011;45708;51.848;107.620;2022-12-18T18:43:08;14.67;;;13.17;;
59828;SDS011;45708;51.848;107.620;2022-12-18T18:48:09;13.63;;;5.53;;
59828;SDS011;45708;51.848;107.620;2022-12-18T18:53:10;13.03;;;8.43;;
59828;SDS011;45708;51.848;107.620;2022-12-18T18:58:11;4.90;;;4.40;;
59828;SDS011;45708;51.848;107.620;2022-12-18T19:03:12;10.50;;;8.60;;
59828;SDS011;45708;51.848;107.620;2022-12-18T19:08:13;21.50;;;5.77;;
59828;SDS011;45708;51.848;107.620;2022-12-18T19:13:14;22.97;;;13.10;;
59828;SDS011;45708;51.848;107.620;2022-12-18T19:18:15;8.80;;;7.17;;
59828;SDS011;45708;51.848;107.620;2022-12-18T19:23:16;28.97;;;8.70;;
59828;SDS011;45708;51.848;107.620;2022-12-18T19:28:17;5.73;;;5.03;;
59828;SDS011;45708;51.848;107.620;2022-12-18T19:33:19;8.27;;;6.53;;
59828;SDS011;45708;51.848;107.620;2022-12-18T19:38:21;16.20;;;12.13;;
59828;SDS011;45708;51.848;107.620;2022-12-18T19:43:21;6.50;;;6.07;;
59828;SDS011;45708;51.848;107.620;2022-12-18T19:48:22;36.47;;;11.73;;
59828;SDS011;45708;51.848;107.620;2022-12-18T19:53:23;6.77;;;5.40;;
59828;SDS011;45708;51.848;107.620;2022-12-18T19:58:24;8.13;;;6.77;;
59828;SDS011;45708;51.848;107.620;2022-12-18T20:03:25;11.00;;;4.83;;
59828;SDS011;45708;51.848;107.620;2022-12-18T20:08:26;8.00;;;3.07;;
59828;SDS011;45708;51.848;107.620;2022-12-18T20:13:27;4.87;;;3.50;;
59828;SDS011;45708;51.848;107.620;2022-12-18T20:18:28;2.37;;;2.27;;
59828;SDS011;45708;51.848;107.620;2022-12-18T20:23:29;4.63;;;4.23;;
59828;SDS011;45708;51.848;107.620;2022-12-18T20:28:30;0.40;;;0.40;;
59828;SDS011;45708;51.848;107.620;2022-12-18T20:33:31;11.40;;;4.40;;
59828;SDS011;45708;51.848;107.620;2022-12-18T20:38:33;7.43;;;4.90;;
59828;SDS011;45708;51.848;107.620;2022-12-18T20:43:35;4.77;;;2.47;;
59828;SDS011;45708;51.848;107.620;2022-12-18T20:48:36;4.17;;;3.80;;
59828;SDS011;45708;51.848;107.620;2022-12-18T20:53:37;1.87;;;1.83;;
59828;SDS011;45708;51.848;107.620;2022-12-18T20:58:39;8.50;;;0.93;;
59828;SDS011;45708;51.848;107.620;2022-12-18T21:03:40;7.93;;;5.33;;
59828;SDS011;45708;51.848;107.620;2022-12-18T21:08:42;8.67;;;5.07;;
59828;SDS011;45708;51.848;107.620;2022-12-18T21:13:43;2.37;;;2.27;;
59828;SDS011;45708;51.848;107.620;2022-12-18T21:18:44;4.97;;;4.63;;
59828;SDS011;45708;51.848;107.620;2022-12-18T21:23:45;12.67;;;4.07;;
59828;SDS011;45708;51.848;107.620;2022-12-18T21:28:47;1.83;;;1.83;;
59828;SDS011;45708;51.848;107.620;2022-12-18T21:33:52;8.80;;;5.00;;
59828;SDS011;45708;51.848;107.620;2022-12-18T21:38:54;1.40;;;1.07;;
59828;SDS011;45708;51.848;107.620;2022-12-18T21:43:55;5.20;;;2.57;;
59828;SDS011;45708;51.848;107.620;2022-12-18T21:48:56;7.23;;;5.00;;
59828;SDS011;45708;51.848;107.620;2022-12-18T21:53:57;4.80;;;2.33;;
59828;SDS011;45708;51.848;107.620;2022-12-18T21:58:58;7.23;;;4.23;;
59828;SDS011;45708;51.848;107.620;2022-12-18T22:03:59;5.57;;;3.53;;
59828;SDS011;45708;51.848;107.620;2022-12-18T22:09:00;4.07;;;2.23;;
59828;SDS011;45708;51.848;107.620;2022-12-18T22:14:01;4.23;;;3.80;;
59828;SDS011;45708;51.848;107.620;2022-12-18T22:19:03;2.60;;;0.70;;
59828;SDS011;45708;51.848;107.620;2022-12-18T22:24:05;1.93;;;1.37;;
59828;SDS011;45708;51.848;107.620;2022-12-18T22:29:16;4.43;;;3.17;;
59828;SDS011;45708;51.848;107.620;2022-12-18T22:34:19;11.63;;;3.53;;
59828;SDS011;45708;51.848;107.620;2022-12-18T22:39:22;1.60;;;1.37;;
59828;SDS011;45708;51.848;107.620;2022-12-18T22:44:25;6.97;;;6.33;;
59828;SDS011;45708;51.848;107.620;2022-12-18T22:49:26;2.70;;;2.50;;
59828;SDS011;45708;51.848;107.620;2022-12-18T22:54:27;1.53;;;1.53;;
59828;SDS011;45708;51.848;107.620;2022-12-18T22:59:28;3.97;;;3.77;;
59828;SDS011;45708;51.848;107.620;2022-12-18T23:04:29;2.70;;;2.43;;
59828;SDS011;45708;51.848;107.620;2022-12-18T23:09:30;8.57;;;4.00;;
59828;SDS011;45708;51.848;107.620;2022-12-18T23:14:31;6.17;;;2.40;;
59828;SDS011;45708;51.848;107.620;2022-12-18T23:19:33;4.93;;;4.57;;
59828;SDS011;45708;51.848;107.620;2022-12-18T23:24:34;11.40;;;4.03;;
59828;SDS011;45708;51.848;107.620;2022-12-18T23:29:35;11.17;;;4.37;;
59828;SDS011;45708;51.848;107.620;2022-12-18T23:34:36;6.70;;;2.40;;
59828;SDS011;45708;51.848;107.620;2022-12-18T23:39:37;13.30;;;7.33;;
59828;SDS011;45708;51.848;107.620;2022-12-18T23:44:38;3.07;;;1.20;;
59828;SDS011;45708;51.848;107.620;2022-12-18T23:49:39;4.33;;;3.03;;
59828;SDS011;45708;51.848;107.620;2022-12-18T23:54:40;1.60;;;1.60;;
59828;SDS011;45708;51.848;107.620;2022-12-18T23:59:40;1.77;;;1.67;;
